createdAt,value
2019-05-15T00:00:39.796Z,3.55
2019-05-15T00:01:45.358Z,3.75
2019-05-15T00:02:50.754Z,2.95
2019-05-15T00:03:58.457Z,3.30
2019-05-15T00:05:04.481Z,3.80
2019-05-15T00:06:10.248Z,4.08
2019-05-15T00:07:15.214Z,3.65
2019-05-15T00:08:20.762Z,3.60
2019-05-15T00:09:25.692Z,3.35
2019-05-15T00:10:31.255Z,3.58
2019-05-15T00:11:38.777Z,3.62
2019-05-15T00:12:43.870Z,3.45
2019-05-15T00:13:49.093Z,3.27
2019-05-15T00:14:54.660Z,4.00
2019-05-15T00:15:59.899Z,4.17
2019-05-15T00:17:05.442Z,3.50
2019-05-15T00:18:10.393Z,3.90
2019-05-15T00:19:18.603Z,3.95
2019-05-15T00:20:23.550Z,3.90
2019-05-15T00:21:29.444Z,3.85
2019-05-15T00:22:34.367Z,4.60
2019-05-15T00:23:42.052Z,4.35
2019-05-15T00:24:48.848Z,4.15
2019-05-15T00:25:54.210Z,4.00
2019-05-15T00:26:59.486Z,4.05
2019-05-15T00:28:05.139Z,3.72
2019-05-15T00:29:15.846Z,4.50
2019-05-15T00:30:18.369Z,3.58
2019-05-15T00:31:23.393Z,4.58
2019-05-15T00:32:29.475Z,4.35
2019-05-15T00:33:34.745Z,4.03
2019-05-15T00:34:40.233Z,3.98
2019-05-15T00:35:45.294Z,4.35
2019-05-15T00:36:50.773Z,4.40
2019-05-15T00:37:55.738Z,3.90
2019-05-15T00:39:01.209Z,4.00
2019-05-15T00:40:08.831Z,3.47
2019-05-15T00:41:14.232Z,4.20
2019-05-15T00:42:19.572Z,4.25
2019-05-15T00:43:25.126Z,4.40
2019-05-15T00:44:30.046Z,4.10
2019-05-15T00:45:38.295Z,4.12
2019-05-15T00:46:42.563Z,4.03
2019-05-15T00:47:48.653Z,3.80
2019-05-15T00:48:54.242Z,4.00
2019-05-15T00:50:00.031Z,4.92
2019-05-15T00:51:05.339Z,4.08
2019-05-15T00:52:12.241Z,3.72
2019-05-15T00:53:19.564Z,3.83
2019-05-15T00:54:25.600Z,4.37
2019-05-15T00:55:30.907Z,4.15
2019-05-15T00:56:36.412Z,4.15
2019-05-15T00:57:41.354Z,3.92
2019-05-15T00:58:48.814Z,3.80
2019-05-15T00:59:54.067Z,4.30
2019-05-15T01:00:59.612Z,4.20
2019-05-15T01:02:04.579Z,4.10
2019-05-15T01:03:10.184Z,4.60
2019-05-15T01:04:15.393Z,4.10
2019-05-15T01:05:20.962Z,4.45
2019-05-15T01:06:28.301Z,4.62
2019-05-15T01:07:33.557Z,4.30
2019-05-15T01:08:39.442Z,5.10
2019-05-15T01:09:45.262Z,4.60
2019-05-15T01:10:50.821Z,3.87
2019-05-15T01:11:58.585Z,4.12
2019-05-15T01:13:03.501Z,4.42
2019-05-15T01:14:12.227Z,4.55
2019-05-15T01:15:18.308Z,4.42
2019-05-15T01:16:23.341Z,4.45
2019-05-15T01:17:29.069Z,4.72
2019-05-15T01:18:34.604Z,4.30
2019-05-15T01:19:39.628Z,4.60
2019-05-15T01:20:45.359Z,5.00
2019-05-15T01:21:50.291Z,4.30
2019-05-15T01:22:55.827Z,4.28
2019-05-15T01:24:00.792Z,4.03
2019-05-15T01:25:08.707Z,4.40
2019-05-15T01:26:13.432Z,4.50
2019-05-15T01:27:19.042Z,4.37
2019-05-15T01:28:24.225Z,4.83
2019-05-15T01:29:41.151Z,5.62
2019-05-15T01:30:39.031Z,4.58
2019-05-15T01:31:44.132Z,4.40
2019-05-15T01:32:49.123Z,5.05
2019-05-15T01:33:54.626Z,5.20
2019-05-15T01:35:00.448Z,4.55
2019-05-15T01:36:08.351Z,4.40
2019-05-15T01:37:12.707Z,4.45
2019-05-15T01:38:18.675Z,4.55
2019-05-15T01:39:23.912Z,4.85
2019-05-15T01:40:29.831Z,4.80
2019-05-15T01:41:35.022Z,4.75
2019-05-15T01:42:40.630Z,4.90
2019-05-15T01:43:45.980Z,4.70
2019-05-15T01:44:51.480Z,5.10
2019-05-15T01:45:58.806Z,4.83
2019-05-15T01:47:04.026Z,4.00
2019-05-15T01:48:12.889Z,4.60
2019-05-15T01:49:18.790Z,4.75
2019-05-15T01:50:23.818Z,4.97
2019-05-15T01:51:29.396Z,4.62
2019-05-15T01:52:34.311Z,4.80
2019-05-15T01:53:39.786Z,4.85
2019-05-15T01:54:44.707Z,4.67
2019-05-15T01:55:50.315Z,5.35
2019-05-15T01:56:55.221Z,4.75
2019-05-15T01:58:01.007Z,5.45
2019-05-15T01:59:06.004Z,5.22
2019-05-15T02:00:11.620Z,4.60
2019-05-15T02:01:19.123Z,5.00
2019-05-15T02:02:24.033Z,5.25
2019-05-15T02:03:29.514Z,4.55
2019-05-15T02:04:35.100Z,5.37
2019-05-15T02:05:40.482Z,4.72
2019-05-15T02:06:48.281Z,4.87
2019-05-15T02:07:52.899Z,4.47
2019-05-15T02:08:58.801Z,4.67
2019-05-15T02:10:04.495Z,5.00
2019-05-15T02:11:09.990Z,4.62
2019-05-15T02:12:15.251Z,4.72
2019-05-15T02:13:20.885Z,4.55
2019-05-15T02:14:28.315Z,5.08
2019-05-15T02:15:33.561Z,5.45
2019-05-15T02:16:39.288Z,4.85
2019-05-15T02:17:45.352Z,4.92
2019-05-15T02:18:50.252Z,4.90
2019-05-15T02:19:56.113Z,4.62
2019-05-15T02:21:02.823Z,4.58
2019-05-15T02:22:08.469Z,4.42
2019-05-15T02:23:13.599Z,4.37
2019-05-15T02:24:19.268Z,4.92
2019-05-15T02:25:24.481Z,4.87
2019-05-15T02:26:30.062Z,4.65
2019-05-15T02:27:35.015Z,5.15
2019-05-15T02:28:40.648Z,4.40
2019-05-15T02:29:45.961Z,4.72
2019-05-15T02:30:51.520Z,3.70
2019-05-15T02:31:59.304Z,4.58
2019-05-15T02:33:03.626Z,5.03
2019-05-15T02:34:10.206Z,5.03
2019-05-15T02:35:18.406Z,4.42
2019-05-15T02:36:22.503Z,4.12
2019-05-15T02:37:29.372Z,3.80
2019-05-15T02:38:35.098Z,4.47
2019-05-15T02:39:40.602Z,5.90
2019-05-15T02:40:45.607Z,3.98
2019-05-15T02:41:51.173Z,4.20
2019-05-15T02:42:58.968Z,5.53
2019-05-15T02:44:03.619Z,3.98
2019-05-15T02:45:10.303Z,4.37
2019-05-15T02:46:19.373Z,4.40
2019-05-15T02:47:23.585Z,4.53
2019-05-15T02:48:29.301Z,4.60
2019-05-15T02:49:34.672Z,4.03
2019-05-15T02:50:40.254Z,4.75
2019-05-15T02:51:45.192Z,4.60
2019-05-15T02:52:50.812Z,4.75
2019-05-15T02:53:58.382Z,3.83
2019-05-15T02:55:03.056Z,4.10
2019-05-15T02:56:09.315Z,3.80
2019-05-15T02:57:15.466Z,4.83
2019-05-15T02:58:21.781Z,4.35
2019-05-15T02:59:29.042Z,4.37
2019-05-15T03:00:43.955Z,3.80
2019-05-15T03:01:41.456Z,3.85
2019-05-15T03:02:49.665Z,4.03
2019-05-15T03:03:54.282Z,3.62
2019-05-15T03:04:59.714Z,4.33
2019-05-15T03:06:05.321Z,4.22
2019-05-15T03:07:10.537Z,4.37
2019-05-15T03:08:19.316Z,4.25
2019-05-15T03:09:22.948Z,4.10
2019-05-15T03:10:29.679Z,4.40
2019-05-15T03:11:34.864Z,4.62
2019-05-15T03:12:42.453Z,4.12
2019-05-15T03:13:50.283Z,4.10
2019-05-15T03:14:54.849Z,4.50
2019-05-15T03:16:20.413Z,4.47
2019-05-15T03:17:25.826Z,4.47
2019-05-15T03:18:31.567Z,4.22
2019-05-15T03:19:39.292Z,4.00
2019-05-15T03:20:43.761Z,4.03
2019-05-15T03:21:49.922Z,4.53
2019-05-15T03:22:55.631Z,4.25
2019-05-15T03:24:00.681Z,5.05
2019-05-15T03:25:10.336Z,4.03
2019-05-15T03:26:13.592Z,4.75
2019-05-15T03:27:19.813Z,4.37
2019-05-15T03:28:24.895Z,4.90
2019-05-15T03:29:30.820Z,4.12
2019-05-15T03:31:06.657Z,4.67
2019-05-15T03:31:59.103Z,4.60
2019-05-15T03:33:00.565Z,4.30
2019-05-15T03:34:03.053Z,4.30
2019-05-15T03:35:05.954Z,4.65
2019-05-15T03:36:13.867Z,5.00
2019-05-15T03:37:22.219Z,4.05
2019-05-15T03:38:29.704Z,4.65
2019-05-15T03:39:33.675Z,4.15
2019-05-15T03:40:39.941Z,4.45
2019-05-15T03:41:45.299Z,4.47
2019-05-15T03:42:51.369Z,4.60
2019-05-15T03:43:59.488Z,5.10
2019-05-15T03:45:03.658Z,4.22
2019-05-15T03:46:09.264Z,4.85
2019-05-15T03:47:15.796Z,4.75
2019-05-15T03:48:20.869Z,5.15
2019-05-15T03:49:29.203Z,4.47
2019-05-15T03:50:33.142Z,4.65
2019-05-15T03:51:42.479Z,4.87
2019-05-15T03:52:45.714Z,3.90
2019-05-15T03:53:51.665Z,4.42
2019-05-15T03:54:58.828Z,4.30
2019-05-15T03:56:03.942Z,4.70
2019-05-15T03:57:09.925Z,4.33
2019-05-15T03:58:20.915Z,4.55
2019-05-15T03:59:23.664Z,4.60
2019-05-15T04:00:30.183Z,4.50
2019-05-15T04:01:39.802Z,4.30
2019-05-15T04:02:42.798Z,4.85
2019-05-15T04:03:49.591Z,4.50
2019-05-15T04:04:58.059Z,4.42
2019-05-15T04:06:02.698Z,3.90
2019-05-15T04:07:09.267Z,4.42
2019-05-15T04:08:14.859Z,3.77
2019-05-15T04:09:20.609Z,4.75
2019-05-15T04:10:28.612Z,4.12
2019-05-15T04:11:33.255Z,4.97
2019-05-15T04:12:40.301Z,4.87
2019-05-15T04:13:45.693Z,4.50
2019-05-15T04:14:50.777Z,4.42
2019-05-15T04:15:59.142Z,5.70
2019-05-15T04:17:03.173Z,5.55
2019-05-15T04:18:09.340Z,4.67
2019-05-15T04:19:18.844Z,4.35
2019-05-15T04:20:23.147Z,5.37
2019-05-15T04:21:30.320Z,4.10
2019-05-15T04:22:35.804Z,4.80
2019-05-15T04:23:41.671Z,4.25
2019-05-15T04:24:49.534Z,4.30
2019-05-15T04:25:54.845Z,4.30
2019-05-15T04:27:06.104Z,5.37
2019-05-15T04:28:11.641Z,4.30
2019-05-15T04:29:19.382Z,4.70
2019-05-15T04:30:24.567Z,5.05
2019-05-15T04:31:49.800Z,4.40
2019-05-15T04:32:39.831Z,4.67
2019-05-15T04:33:44.439Z,4.75
2019-05-15T04:34:49.523Z,4.85
2019-05-15T04:35:55.019Z,5.00
2019-05-15T04:37:00.328Z,5.25
2019-05-15T04:38:09.065Z,9.23
2019-05-15T04:39:12.994Z,7.67
2019-05-15T04:40:19.439Z,5.70
2019-05-15T04:41:24.911Z,5.37
2019-05-15T04:42:30.765Z,4.53
2019-05-15T04:43:44.139Z,4.20
2019-05-15T04:44:42.941Z,4.67
2019-05-15T04:45:49.784Z,5.17
2019-05-15T04:46:55.099Z,4.78
2019-05-15T04:48:00.099Z,5.28
2019-05-15T04:49:09.021Z,4.30
2019-05-15T04:50:12.719Z,5.35
2019-05-15T04:51:19.092Z,4.40
2019-05-15T04:52:24.257Z,4.85
2019-05-15T04:53:33.163Z,4.15
2019-05-15T04:54:39.925Z,4.78
2019-05-15T04:55:44.335Z,5.10
2019-05-15T04:56:50.357Z,4.53
2019-05-15T04:57:58.992Z,4.85
2019-05-15T04:59:02.641Z,4.65
2019-05-15T05:00:09.831Z,4.78
2019-05-15T05:01:19.701Z,4.85
2019-05-15T05:02:27.064Z,4.85
2019-05-15T05:03:34.145Z,4.30
2019-05-15T05:04:38.830Z,5.10
2019-05-15T05:05:44.210Z,6.87
2019-05-15T05:06:49.742Z,5.60
2019-05-15T05:07:54.990Z,6.40
2019-05-15T05:09:00.909Z,5.30
2019-05-15T05:10:09.663Z,5.97
2019-05-15T05:11:14.121Z,4.72
2019-05-15T05:12:19.485Z,5.08
2019-05-15T05:13:28.403Z,5.50
2019-05-15T05:14:33.383Z,4.17
2019-05-15T05:16:39.548Z,4.92
2019-05-15T05:17:45.413Z,5.00
2019-05-15T05:18:50.672Z,6.15
2019-05-15T05:19:58.361Z,5.20
2019-05-15T05:21:03.625Z,4.58
2019-05-15T05:22:09.561Z,5.05
2019-05-15T05:23:14.634Z,4.28
2019-05-15T05:24:20.354Z,4.30
2019-05-15T05:25:27.842Z,4.67
2019-05-15T05:26:32.667Z,4.85
2019-05-15T05:27:38.548Z,4.45
2019-05-15T05:28:44.446Z,4.40
2019-05-15T05:29:50.095Z,4.50
2019-05-15T05:30:58.569Z,4.08
2019-05-15T05:32:02.818Z,4.40
2019-05-15T05:33:08.635Z,3.52
2019-05-15T05:34:14.069Z,3.22
2019-05-15T05:35:19.843Z,3.20
2019-05-15T05:36:25.195Z,3.45
2019-05-15T05:37:31.126Z,3.25
2019-05-15T05:38:38.471Z,4.10
2019-05-15T05:39:43.564Z,3.90
2019-05-15T05:40:49.891Z,3.50
2019-05-15T05:41:55.713Z,3.90
2019-05-15T05:43:00.722Z,3.83
2019-05-15T05:44:08.166Z,3.00
2019-05-15T05:45:13.625Z,2.95
2019-05-15T05:46:19.458Z,3.92
2019-05-15T05:47:24.391Z,3.22
2019-05-15T05:48:30.180Z,3.17
2019-05-15T05:49:35.205Z,2.65
2019-05-15T05:50:44.820Z,3.40
2019-05-15T05:51:49.862Z,2.98
2019-05-15T05:52:57.832Z,2.50
2019-05-15T05:54:02.503Z,2.00
2019-05-15T05:55:09.131Z,2.62
2019-05-15T05:56:14.230Z,3.40
2019-05-15T05:57:19.979Z,2.77
2019-05-15T05:58:25.326Z,2.80
2019-05-15T05:59:30.888Z,2.30
2019-05-15T06:00:41.824Z,2.42
2019-05-15T06:01:48.388Z,2.10
2019-05-15T06:02:53.619Z,2.50
2019-05-15T06:03:59.418Z,2.40
2019-05-15T06:05:04.495Z,2.15
2019-05-15T06:06:10.130Z,2.42
2019-05-15T06:07:15.104Z,2.20
2019-05-15T06:08:20.726Z,2.80
2019-05-15T06:09:27.832Z,2.20
2019-05-15T06:10:33.798Z,2.00
2019-05-15T06:11:38.887Z,1.72
2019-05-15T06:12:44.400Z,2.33
2019-05-15T06:13:52.509Z,1.95
2019-05-15T06:14:58.086Z,2.72
2019-05-15T06:16:03.212Z,2.22
2019-05-15T06:17:08.684Z,2.00
2019-05-15T06:18:13.759Z,2.75
2019-05-15T06:19:19.384Z,2.10
2019-05-15T06:20:24.394Z,2.12
2019-05-15T06:21:29.850Z,2.35
2019-05-15T06:22:35.114Z,2.58
2019-05-15T06:23:45.616Z,1.75
2019-05-15T06:24:48.491Z,2.50
2019-05-15T06:25:54.312Z,2.15
2019-05-15T06:26:59.371Z,2.45
2019-05-15T06:28:05.000Z,2.00
2019-05-15T06:29:10.318Z,2.33
2019-05-15T06:30:21.896Z,2.75
2019-05-15T06:31:22.891Z,2.30
2019-05-15T06:32:29.091Z,3.02
2019-05-15T06:33:34.041Z,2.55
2019-05-15T06:34:39.882Z,3.15
2019-05-15T06:35:45.069Z,2.92
2019-05-15T06:36:50.747Z,3.90
2019-05-15T06:37:55.914Z,3.27
2019-05-15T06:39:01.739Z,2.65
2019-05-15T06:40:08.456Z,3.65
2019-05-15T06:41:14.652Z,2.80
2019-05-15T06:42:19.579Z,2.90
2019-05-15T06:43:25.191Z,3.30
2019-05-15T06:44:30.212Z,2.70
2019-05-15T06:45:37.881Z,2.58
2019-05-15T06:46:42.444Z,3.60
2019-05-15T06:47:48.380Z,2.60
2019-05-15T06:48:53.751Z,2.42
2019-05-15T06:49:59.326Z,2.20
2019-05-15T06:51:04.470Z,2.37
2019-05-15T06:52:10.378Z,2.40
2019-05-15T06:53:15.285Z,2.30
2019-05-15T06:54:20.784Z,1.95
2019-05-15T06:55:25.760Z,2.30
2019-05-15T06:56:31.379Z,2.37
2019-05-15T06:57:36.468Z,1.82
2019-05-15T06:58:42.369Z,2.10
2019-05-15T06:59:48.406Z,2.17
2019-05-15T07:00:54.417Z,1.95
2019-05-15T07:01:59.563Z,1.80
2019-05-15T07:03:20.016Z,1.52
2019-05-15T07:04:12.024Z,2.33
2019-05-15T07:05:18.455Z,1.65
2019-05-15T07:06:23.870Z,1.77
2019-05-15T07:07:29.423Z,1.60
2019-05-15T07:08:34.880Z,1.87
2019-05-15T07:09:40.373Z,1.35
2019-05-15T07:10:45.574Z,1.60
2019-05-15T07:11:51.179Z,1.60
2019-05-15T07:12:58.371Z,1.90
2019-05-15T07:18:32.907Z,1.80
2019-05-15T07:19:39.367Z,1.40
2019-05-15T07:20:48.605Z,1.72
2019-05-15T07:21:53.310Z,1.70
2019-05-15T07:22:58.734Z,1.60
2019-05-15T07:24:04.737Z,1.82
2019-05-15T07:25:10.444Z,1.70
2019-05-15T07:26:18.159Z,1.82
2019-05-15T07:27:22.687Z,1.75
2019-05-15T07:28:29.638Z,1.80
2019-05-15T07:29:38.408Z,1.60
2019-05-15T07:30:43.694Z,1.80
2019-05-15T07:31:48.667Z,1.80
2019-05-15T07:32:54.197Z,1.50
2019-05-15T07:34:00.002Z,1.60
2019-05-15T07:35:08.461Z,1.50
2019-05-15T07:36:13.584Z,1.80
2019-05-15T07:37:19.226Z,1.75
2019-05-15T07:38:24.093Z,2.37
2019-05-15T07:39:29.761Z,1.60
2019-05-15T07:40:34.643Z,1.67
2019-05-15T07:41:40.635Z,1.30
2019-05-15T07:42:48.784Z,1.75
2019-05-15T07:43:53.201Z,1.22
2019-05-15T07:44:59.559Z,1.30
2019-05-15T07:46:08.099Z,1.72
2019-05-15T07:47:11.957Z,1.65
2019-05-15T07:48:18.878Z,1.90
2019-05-15T07:49:24.053Z,1.40
2019-05-15T07:50:30.019Z,1.55
2019-05-15T07:51:34.946Z,1.90
2019-05-15T07:52:41.252Z,1.57
2019-05-15T07:53:48.727Z,1.90
2019-05-15T07:54:55.267Z,2.17
2019-05-15T07:56:01.629Z,1.55
2019-05-15T07:57:08.943Z,1.50
2019-05-15T07:58:14.141Z,1.80
2019-05-15T07:59:19.687Z,2.10
2019-05-15T08:00:25.351Z,1.37
2019-05-15T08:01:30.918Z,1.70
2019-05-15T08:02:37.909Z,1.60
2019-05-15T08:03:56.556Z,1.80
2019-05-15T08:04:49.857Z,1.80
2019-05-15T08:06:02.690Z,1.75
2019-05-15T08:07:03.990Z,1.42
2019-05-15T08:08:09.694Z,1.80
2019-05-15T08:09:14.752Z,2.45
2019-05-15T08:10:22.280Z,2.15
2019-05-15T08:11:28.498Z,2.05
2019-05-15T08:12:34.246Z,1.90
2019-05-15T08:13:39.715Z,1.60
2019-05-15T08:14:47.435Z,1.52
2019-05-15T08:15:53.275Z,1.57
2019-05-15T08:16:59.374Z,1.60
2019-05-15T08:18:09.099Z,1.82
2019-05-15T08:19:11.843Z,1.55
2019-05-15T08:20:18.358Z,0.90
2019-05-15T08:21:24.003Z,1.77
2019-05-15T08:22:29.390Z,1.90
2019-05-15T08:23:34.930Z,1.70
2019-05-15T08:24:39.818Z,1.92
2019-05-15T08:25:48.522Z,1.90
2019-05-15T08:26:53.625Z,1.92
2019-05-15T08:27:59.552Z,1.82
2019-05-15T08:29:04.652Z,1.92
2019-05-15T08:30:12.179Z,1.60
2019-05-15T08:31:18.793Z,1.82
2019-05-15T08:32:24.443Z,2.08
2019-05-15T08:33:29.513Z,1.60
2019-05-15T08:34:34.970Z,2.33
2019-05-15T08:35:44.451Z,2.42
2019-05-15T08:36:48.240Z,2.05
2019-05-15T08:37:53.423Z,1.52
2019-05-15T08:38:59.202Z,1.98
2019-05-15T08:40:04.868Z,2.00
2019-05-15T08:41:11.530Z,2.12
2019-05-15T08:42:18.899Z,2.00
2019-05-15T08:43:24.036Z,2.05
2019-05-15T08:44:29.585Z,1.70
2019-05-15T08:45:35.298Z,1.92
2019-05-15T08:46:40.695Z,1.60
2019-05-15T08:47:48.966Z,1.95
2019-05-15T08:48:52.905Z,2.15
2019-05-15T08:49:58.512Z,1.60
2019-05-15T08:51:03.447Z,1.75
2019-05-15T08:52:10.333Z,1.82
2019-05-15T08:53:15.516Z,1.60
2019-05-15T08:54:21.193Z,1.57
2019-05-15T08:55:28.052Z,1.70
2019-05-15T08:56:33.351Z,1.62
2019-05-15T08:57:38.564Z,1.60
2019-05-15T08:58:44.344Z,1.60
2019-05-15T08:59:49.263Z,1.50
2019-05-15T09:00:54.774Z,1.72
2019-05-15T09:01:59.768Z,1.45
2019-05-15T09:03:05.533Z,1.40
2019-05-15T09:04:10.471Z,1.98
2019-05-15T09:05:18.646Z,1.20
2019-05-15T09:06:24.256Z,1.70
2019-05-15T09:07:30.187Z,1.57
2019-05-15T09:08:35.215Z,1.20
2019-05-15T09:09:40.782Z,1.32
2019-05-15T09:10:46.302Z,1.47
2019-05-15T09:11:51.853Z,1.27
2019-05-15T09:12:58.686Z,1.80
2019-05-15T09:14:04.279Z,1.82
2019-05-15T09:15:10.388Z,1.20
2019-05-15T09:16:18.353Z,1.40
2019-05-15T09:17:22.538Z,1.20
2019-05-15T09:18:28.438Z,1.40
2019-05-15T09:19:33.638Z,1.57
2019-05-15T09:20:39.713Z,1.52
2019-05-15T09:21:44.958Z,1.55
2019-05-15T09:22:50.830Z,2.15
2019-05-15T09:23:58.694Z,2.02
2019-05-15T09:25:03.640Z,1.40
2019-05-15T09:26:09.399Z,1.87
2019-05-15T09:27:15.315Z,1.62
2019-05-15T09:28:20.245Z,2.00
2019-05-15T09:29:25.733Z,1.50
2019-05-15T09:30:30.739Z,1.80
2019-05-15T09:31:36.229Z,1.45
2019-05-15T09:32:41.220Z,1.60
2019-05-15T09:33:49.324Z,1.65
2019-05-15T09:34:55.554Z,1.45
2019-05-15T09:36:01.363Z,1.60
2019-05-15T09:37:08.443Z,1.42
2019-05-15T09:38:13.909Z,1.50
2019-05-15T09:39:19.528Z,1.60
2019-05-15T09:40:41.737Z,1.50
2019-05-15T09:41:31.817Z,2.08
2019-05-15T09:42:38.866Z,1.57
2019-05-15T09:43:44.206Z,1.52
2019-05-15T09:44:50.026Z,1.52
2019-05-15T09:45:55.034Z,1.80
2019-05-15T09:47:00.937Z,1.30
2019-05-15T09:48:09.494Z,1.57
2019-05-15T09:49:13.272Z,1.27
2019-05-15T09:50:19.522Z,1.65
2019-05-15T09:51:25.069Z,1.40
2019-05-15T09:52:30.288Z,1.67
2019-05-15T09:53:39.084Z,1.62
2019-05-15T09:54:43.417Z,1.85
2019-05-15T09:55:49.790Z,1.65
2019-05-15T09:56:55.546Z,1.70
2019-05-15T09:58:01.309Z,1.47
2019-05-15T09:59:08.851Z,1.82
2019-05-15T10:00:14.823Z,1.85
2019-05-15T10:01:20.007Z,2.10
2019-05-15T10:02:28.248Z,1.65
2019-05-15T10:03:32.309Z,1.72
2019-05-15T10:04:39.038Z,1.32
2019-05-15T10:05:44.996Z,1.92
2019-05-15T10:06:50.711Z,1.50
2019-05-15T10:07:55.619Z,1.72
2019-05-15T10:09:01.118Z,1.62
2019-05-15T10:10:08.733Z,2.40
2019-05-15T10:11:14.155Z,2.00
2019-05-15T10:12:19.136Z,1.90
2019-05-15T10:13:24.594Z,1.92
2019-05-15T10:14:29.972Z,2.30
2019-05-15T10:15:35.512Z,1.77
2019-05-15T10:16:41.161Z,2.08
2019-05-15T10:17:50.899Z,1.85
2019-05-15T10:18:53.963Z,2.27
2019-05-15T10:19:59.414Z,1.90
2019-05-15T10:21:04.481Z,1.77
2019-05-15T10:22:10.107Z,1.75
2019-05-15T10:23:19.164Z,1.82
2019-05-15T10:24:23.198Z,2.10
2019-05-15T10:25:28.247Z,1.85
2019-05-15T10:26:33.812Z,2.52
2019-05-15T10:27:39.789Z,2.22
2019-05-15T10:28:45.529Z,1.90
2019-05-15T10:29:50.779Z,1.70
2019-05-15T10:30:56.306Z,1.70
2019-05-15T10:32:01.643Z,2.20
2019-05-15T10:33:08.737Z,1.77
2019-05-15T10:34:13.763Z,1.40
2019-05-15T10:35:28.283Z,1.80
2019-05-15T10:36:28.028Z,2.10
2019-05-15T10:37:34.065Z,2.30
2019-05-15T10:38:39.377Z,1.98
2019-05-15T10:39:45.199Z,3.17
2019-05-15T10:41:03.703Z,2.25
2019-05-15T10:41:57.785Z,2.27
2019-05-15T10:43:02.872Z,2.15
2019-05-15T10:44:09.320Z,2.45
2019-05-15T10:45:15.042Z,2.15
2019-05-15T10:46:20.889Z,2.00
2019-05-15T10:47:25.827Z,2.10
2019-05-15T10:48:31.830Z,2.10
2019-05-15T10:49:39.012Z,2.20
2019-05-15T10:50:44.421Z,2.10
2019-05-15T10:51:49.786Z,2.17
2019-05-15T10:52:55.399Z,2.25
2019-05-15T10:54:00.875Z,2.15
2019-05-15T10:55:09.242Z,1.72
2019-05-15T10:56:14.109Z,2.00
2019-05-15T10:57:22.883Z,2.87
2019-05-15T10:58:28.571Z,2.25
2019-05-15T10:59:34.336Z,2.33
2019-05-15T11:00:39.401Z,2.90
2019-05-15T11:01:44.945Z,1.92
2019-05-15T11:02:50.199Z,2.12
2019-05-15T11:03:55.667Z,1.98
2019-05-15T11:05:00.768Z,2.40
2019-05-15T11:06:08.870Z,2.70
2019-05-15T11:07:13.025Z,2.30
2019-05-15T11:08:19.109Z,2.37
2019-05-15T11:09:24.180Z,2.02
2019-05-15T11:10:29.907Z,1.62
2019-05-15T11:11:35.089Z,2.25
2019-05-15T11:12:40.818Z,1.85
2019-05-15T11:13:45.734Z,1.98
2019-05-15T11:14:51.835Z,2.20
2019-05-15T11:15:57.151Z,2.20
2019-05-15T11:17:02.717Z,2.42
2019-05-15T11:18:09.252Z,2.02
2019-05-15T11:19:15.278Z,3.52
2019-05-15T11:20:20.525Z,1.80
2019-05-15T11:21:26.170Z,1.20
2019-05-15T11:22:31.310Z,1.47
2019-05-15T11:23:39.536Z,1.95
2019-05-15T11:24:43.582Z,2.10
2019-05-15T11:25:49.467Z,1.85
2019-05-15T11:26:56.241Z,2.08
2019-05-15T11:28:02.012Z,2.25
2019-05-15T11:29:09.604Z,2.20
2019-05-15T11:30:14.925Z,1.82
2019-05-15T11:31:20.380Z,2.00
2019-05-15T11:32:25.978Z,2.02
2019-05-15T11:33:30.915Z,1.30
2019-05-15T11:34:38.287Z,1.80
2019-05-15T11:35:56.801Z,1.60
2019-05-15T11:36:50.622Z,2.08
2019-05-15T11:37:57.318Z,2.27
2019-05-15T11:39:02.739Z,2.37
2019-05-15T11:40:10.032Z,1.95
2019-05-15T11:41:18.424Z,1.98
2019-05-15T11:42:22.133Z,1.87
2019-05-15T11:43:29.155Z,2.12
2019-05-15T11:44:34.896Z,1.87
2019-05-15T11:45:40.531Z,2.25
2019-05-15T11:46:45.835Z,2.30
2019-05-15T11:47:51.818Z,1.72
2019-05-15T11:48:58.805Z,1.50
2019-05-15T11:50:04.268Z,2.00
2019-05-15T11:51:09.932Z,2.00
2019-05-15T11:52:18.602Z,1.75
2019-05-15T11:53:22.463Z,2.35
2019-05-15T11:54:28.420Z,2.02
2019-05-15T11:55:34.070Z,2.15
2019-05-15T11:56:39.539Z,2.00
2019-05-15T11:57:47.516Z,2.00
2019-05-15T11:58:51.764Z,1.98
2019-05-15T11:59:59.613Z,2.10
2019-05-15T12:01:04.087Z,2.17
2019-05-15T12:02:09.008Z,1.90
2019-05-15T12:03:14.743Z,2.20
2019-05-15T12:04:30.435Z,2.00
2019-05-15T12:05:28.797Z,2.30
2019-05-15T12:06:34.111Z,2.30
2019-05-15T12:07:39.725Z,1.77
2019-05-15T12:08:44.791Z,1.60
2019-05-15T12:09:50.479Z,2.12
2019-05-15T12:10:58.834Z,2.10
2019-05-15T12:12:02.977Z,1.67
2019-05-15T12:13:09.793Z,2.30
2019-05-15T12:14:18.613Z,1.70
2019-05-15T12:15:22.396Z,1.80
2019-05-15T12:16:28.979Z,2.25
2019-05-15T12:17:34.353Z,1.95
2019-05-15T12:18:39.961Z,1.30
2019-05-15T12:19:54.936Z,1.80
2019-05-15T12:20:52.140Z,1.95
2019-05-15T12:21:59.781Z,2.10
2019-05-15T12:23:04.646Z,2.47
2019-05-15T12:24:09.678Z,1.80
2019-05-15T12:25:15.596Z,1.80
2019-05-15T12:26:20.790Z,2.10
2019-05-15T12:27:28.272Z,2.00
2019-05-15T12:28:33.617Z,1.70
2019-05-15T12:29:39.985Z,2.00
2019-05-15T12:30:45.236Z,1.70
2019-05-15T12:31:50.946Z,1.72
2019-05-15T12:32:55.875Z,1.85
2019-05-15T12:34:01.411Z,1.27
2019-05-15T12:35:06.722Z,1.62
2019-05-15T12:36:12.336Z,1.52
2019-05-15T12:37:19.035Z,1.95
2019-05-15T12:38:24.507Z,2.30
2019-05-15T12:39:30.563Z,2.00
2019-05-15T13:00:42.922Z,1.95
2019-05-15T13:01:47.938Z,2.17
2019-05-15T13:02:53.453Z,2.25
2019-05-15T13:03:58.391Z,1.60
2019-05-15T13:05:03.973Z,1.85
2019-05-15T13:06:08.953Z,1.42
2019-05-15T13:07:16.862Z,2.10
2019-05-15T13:08:21.690Z,1.98
2019-05-15T13:09:27.768Z,1.90
2019-05-15T13:10:32.835Z,2.15
2019-05-15T13:11:38.450Z,1.90
2019-05-15T13:12:59.148Z,2.40
2019-05-15T13:13:50.632Z,1.70
2019-05-15T13:14:59.081Z,2.00
2019-05-15T13:16:04.942Z,1.80
2019-05-15T13:17:10.084Z,2.25
2019-05-15T13:18:17.858Z,1.70
2019-05-15T13:19:22.655Z,1.90
2019-05-15T13:20:28.890Z,1.90
2019-05-15T13:21:34.340Z,1.87
2019-05-15T13:22:39.811Z,2.00
2019-05-15T13:23:44.970Z,2.95
2019-05-15T13:24:50.560Z,1.80
2019-05-15T13:25:55.817Z,1.90
2019-05-15T13:27:01.279Z,2.02
2019-05-15T13:28:08.582Z,1.92
2019-05-15T13:29:13.694Z,1.72
2019-05-15T13:30:19.722Z,1.77
2019-05-15T13:31:25.348Z,1.95
2019-05-15T13:32:30.251Z,1.52
2019-05-15T13:33:35.845Z,1.85
2019-05-15T13:34:40.769Z,1.85
2019-05-15T13:35:48.486Z,1.57
2019-05-15T13:36:54.109Z,1.95
2019-05-15T13:37:59.775Z,1.65
2019-05-15T13:39:06.414Z,1.45
2019-05-15T13:40:12.605Z,1.55
2019-05-15T13:41:19.026Z,1.90
2019-05-15T13:42:27.998Z,1.70
2019-05-15T13:43:32.735Z,2.00
2019-05-15T13:44:38.787Z,2.00
2019-05-15T13:45:43.741Z,2.20
2019-05-15T13:46:49.216Z,2.25
2019-05-15T13:47:54.796Z,1.65
2019-05-15T13:49:00.421Z,1.92
2019-05-15T13:50:07.867Z,2.27
2019-05-15T13:51:13.225Z,1.80
2019-05-15T13:52:18.818Z,2.20
2019-05-15T13:53:24.425Z,1.70
2019-05-15T13:54:29.830Z,1.65
2019-05-15T13:55:37.941Z,1.80
2019-05-15T13:56:42.827Z,2.27
2019-05-15T13:57:48.772Z,1.67
2019-05-15T13:58:53.902Z,2.15
2019-05-15T13:59:59.411Z,1.80
2019-05-15T14:01:05.021Z,1.85
2019-05-15T14:02:10.580Z,2.00
2019-05-15T14:03:15.676Z,3.17
2019-05-15T14:04:21.207Z,2.02
2019-05-15T14:05:29.457Z,2.45
2019-05-15T14:06:33.339Z,1.65
2019-05-15T14:07:49.014Z,1.67
2019-05-15T14:08:48.531Z,2.10
2019-05-15T14:09:53.050Z,1.92
2019-05-15T14:10:58.642Z,1.85
2019-05-15T14:12:03.883Z,1.75
2019-05-15T14:13:13.651Z,1.62
2019-05-15T14:14:19.855Z,2.05
2019-05-15T14:15:25.385Z,1.98
2019-05-15T14:16:31.026Z,2.00
2019-05-15T14:17:37.659Z,1.65
2019-05-15T14:18:42.955Z,1.87
2019-05-15T14:19:48.757Z,1.80
2019-05-15T14:20:54.437Z,1.70
2019-05-15T14:21:59.991Z,1.87
2019-05-15T14:23:05.039Z,1.60
2019-05-15T14:24:10.638Z,1.62
2019-05-15T14:25:18.109Z,2.00
2019-05-15T14:26:23.885Z,1.60
2019-05-15T14:27:29.362Z,1.50
2019-05-15T14:28:35.586Z,1.72
2019-05-15T14:29:41.008Z,1.62
2019-05-15T14:30:46.779Z,1.70
2019-05-15T14:31:51.713Z,1.75
2019-05-15T14:32:59.874Z,1.72
2019-05-15T14:34:04.079Z,1.92
2019-05-15T14:35:10.824Z,2.17
2019-05-15T14:36:18.414Z,1.85
2019-05-15T14:37:23.222Z,1.80
2019-05-15T14:38:29.116Z,2.00
2019-05-15T14:39:35.113Z,1.92
2019-05-15T14:40:40.008Z,2.10
2019-05-15T14:41:45.564Z,2.10
2019-05-15T14:42:51.347Z,2.37
2019-05-15T14:43:57.834Z,1.87
2019-05-15T14:45:03.603Z,1.57
2019-05-15T14:46:09.195Z,1.45
2019-05-15T14:47:14.088Z,1.70
2019-05-15T14:48:19.556Z,1.65
2019-05-15T14:49:24.832Z,1.50
2019-05-15T14:50:30.790Z,1.70
2019-05-15T14:51:35.698Z,1.45
2019-05-15T14:52:41.449Z,1.80
2019-05-15T14:53:49.006Z,1.85
2019-05-15T14:54:54.410Z,1.65
2019-05-15T14:56:00.382Z,2.20
2019-05-15T14:57:08.654Z,1.70
2019-05-15T14:58:13.804Z,1.82
2019-05-15T14:59:19.386Z,1.87
2019-05-15T15:00:29.005Z,1.80
2019-05-15T15:01:31.786Z,1.70
2019-05-15T15:02:38.875Z,2.25
2019-05-15T15:03:44.101Z,1.92